createdAt,value
2019-03-11T00:00:12.335Z,937.4
2019-03-11T00:01:12.240Z,937.3
2019-03-11T00:02:12.151Z,937.3
2019-03-11T00:03:12.071Z,937.3
2019-03-11T00:04:19.270Z,937.3
2019-03-11T00:05:19.550Z,937.4
2019-03-11T00:06:19.502Z,937.2
2019-03-11T00:07:19.403Z,937.3
2019-03-11T00:08:19.282Z,937.2
2019-03-11T00:09:19.171Z,937.3
2019-03-11T00:10:19.081Z,937.4
2019-03-11T00:11:18.951Z,937.3
2019-03-11T00:12:18.850Z,937.4
2019-03-11T00:13:18.729Z,937.4
2019-03-11T00:14:19.044Z,937.3
2019-03-11T00:15:18.936Z,937.4
2019-03-11T00:16:18.838Z,937.3
2019-03-11T00:17:18.576Z,937.3
2019-03-11T00:18:18.310Z,937.4
2019-03-11T00:19:18.033Z,937.3
2019-03-11T00:20:17.764Z,937.5
2019-03-11T00:21:17.493Z,937.5
2019-03-11T00:22:17.260Z,937.5
2019-03-11T00:23:16.988Z,937.5
2019-03-11T00:24:17.278Z,937.5
2019-03-11T00:25:17.188Z,937.6
2019-03-11T00:26:17.091Z,937.6
2019-03-11T00:27:16.995Z,937.6
2019-03-11T00:28:16.887Z,937.6
2019-03-11T00:29:16.777Z,937.7
2019-03-11T00:30:16.667Z,937.4
2019-03-11T00:31:16.568Z,937.6
2019-03-11T00:32:16.469Z,937.5
2019-03-11T00:33:16.396Z,937.5
2019-03-11T00:34:16.725Z,937.7
2019-03-11T00:35:16.620Z,937.7
2019-03-11T00:36:16.506Z,937.5
2019-03-11T00:37:16.417Z,937.7
2019-03-11T00:38:16.330Z,937.7
2019-03-11T00:39:16.233Z,937.7
2019-03-11T00:40:16.134Z,936.1
2019-03-11T00:41:16.060Z,937.7
2019-03-11T00:42:15.959Z,937.7
2019-03-11T00:43:15.857Z,937.7
2019-03-11T00:44:16.183Z,937.7
2019-03-11T00:45:16.080Z,937.7
2019-03-11T00:46:15.986Z,937.7
2019-03-11T00:47:15.876Z,937.6
2019-03-11T00:48:15.803Z,937.8
2019-03-11T00:49:15.697Z,937.7
2019-03-11T00:50:15.629Z,937.7
2019-03-11T00:51:15.518Z,937.7
2019-03-11T00:52:15.398Z,937.6
2019-03-11T00:53:15.506Z,937.5
2019-03-11T00:54:15.883Z,937.5
2019-03-11T00:55:15.784Z,937.5
2019-03-11T00:56:15.665Z,937.5
2019-03-11T00:57:15.548Z,937.5
2019-03-11T00:58:15.507Z,937.6
2019-03-11T00:59:15.403Z,937.5
2019-03-11T01:00:15.297Z,937.5
2019-03-11T01:01:15.184Z,937.5
2019-03-11T01:02:15.081Z,937.4
2019-03-11T01:03:14.954Z,937.6
2019-03-11T01:04:15.321Z,937.4
2019-03-11T01:05:15.215Z,937.6
2019-03-11T01:06:15.111Z,937.5
2019-03-11T01:07:15.006Z,937.4
2019-03-11T01:08:14.911Z,937.5
2019-03-11T01:09:14.799Z,936
2019-03-11T01:10:14.735Z,937.5
2019-03-11T01:11:14.627Z,937.4
2019-03-11T01:12:14.533Z,937.5
2019-03-11T01:13:14.469Z,937.5
2019-03-11T01:14:14.817Z,937.3
2019-03-11T01:15:14.751Z,937.5
2019-03-11T01:16:14.654Z,937.4
2019-03-11T01:17:14.607Z,937.4
2019-03-11T01:18:14.499Z,937.5
2019-03-11T01:19:14.470Z,937.4
2019-03-11T01:20:14.403Z,937.5
2019-03-11T01:21:14.289Z,937.5
2019-03-11T01:22:14.190Z,937.5
2019-03-11T01:23:14.097Z,937.4
2019-03-11T01:24:14.419Z,937.4
2019-03-11T01:25:14.321Z,937.4
2019-03-11T01:26:14.232Z,937.5
2019-03-11T01:27:14.132Z,937.5
2019-03-11T01:28:14.029Z,937.4
2019-03-11T01:29:13.930Z,937.5
2019-03-11T01:30:13.823Z,937.4
2019-03-11T01:31:13.727Z,937.4
2019-03-11T01:32:13.625Z,937.5
2019-03-11T01:33:13.579Z,937.5
2019-03-11T01:34:13.915Z,937.4
2019-03-11T01:35:13.797Z,937.5
2019-03-11T01:36:13.815Z,937.5
2019-03-11T01:37:13.706Z,937.4
2019-03-11T01:38:13.610Z,937.4
2019-03-11T01:39:13.512Z,937.4
2019-03-11T01:40:13.487Z,937.4
2019-03-11T01:41:13.362Z,937.2
2019-03-11T01:42:13.298Z,937.2
2019-03-11T01:43:13.200Z,937.2
2019-03-11T01:44:13.523Z,937.3
2019-03-11T01:45:13.405Z,936.4
2019-03-11T01:46:13.132Z,937.2
2019-03-11T01:47:12.883Z,937.1
2019-03-11T01:48:12.617Z,937.2
2019-03-11T01:49:12.360Z,937.2
2019-03-11T01:50:12.079Z,937
2019-03-11T01:51:11.800Z,936.1
2019-03-11T01:52:11.549Z,937.1
2019-03-11T01:53:11.291Z,937.1
2019-03-11T01:54:11.662Z,937.1
2019-03-11T01:55:11.558Z,937
2019-03-11T01:56:11.506Z,937.1
2019-03-11T01:57:11.388Z,937.2
2019-03-11T01:58:11.335Z,937.1
2019-03-11T01:59:11.249Z,937
2019-03-11T02:00:11.125Z,936.8
2019-03-11T02:01:11.003Z,936.9
2019-03-11T02:02:10.892Z,937
2019-03-11T02:03:10.800Z,936.9
2019-03-11T02:04:11.134Z,936.9
2019-03-11T02:05:11.013Z,936.9
2019-03-11T02:06:10.908Z,936.8
2019-03-11T02:07:10.799Z,936.9
2019-03-11T02:08:10.570Z,936.8
2019-03-11T02:09:10.314Z,936.9
2019-03-11T02:10:10.040Z,937
2019-03-11T02:11:09.761Z,936.9
2019-03-11T02:12:09.491Z,937
2019-03-11T02:13:09.226Z,936.9
2019-03-11T02:14:09.559Z,937
2019-03-11T02:15:09.444Z,937
2019-03-11T02:16:09.334Z,936.9
2019-03-11T02:17:09.224Z,937
2019-03-11T02:18:09.124Z,937
2019-03-11T02:19:09.046Z,936.9
2019-03-11T02:20:08.940Z,936.9
2019-03-11T02:21:08.902Z,936.9
2019-03-11T02:22:08.791Z,936.9
2019-03-11T02:23:08.672Z,937
2019-03-11T02:24:09.000Z,936.9
2019-03-11T02:25:08.924Z,936.9
2019-03-11T02:26:08.823Z,937
2019-03-11T02:27:08.727Z,937
2019-03-11T02:28:08.667Z,936.8
2019-03-11T02:29:08.543Z,936.9
2019-03-11T02:30:08.470Z,936.7
2019-03-11T02:31:08.401Z,936.9
2019-03-11T02:32:08.298Z,936.9
2019-03-11T02:33:08.245Z,936.8
2019-03-11T02:34:08.580Z,937
2019-03-11T02:35:08.541Z,936.8
2019-03-11T02:36:08.486Z,936.8
2019-03-11T02:37:08.261Z,936.8
2019-03-11T02:38:08.003Z,936.6
2019-03-11T02:39:07.743Z,936.7
2019-03-11T02:40:07.482Z,936.7
2019-03-11T02:41:07.227Z,936.7
2019-03-11T02:42:06.977Z,936.8
2019-03-11T02:43:06.712Z,936.5
2019-03-11T02:44:07.105Z,936.7
2019-03-11T02:45:07.012Z,936.7
2019-03-11T02:46:06.976Z,936.7
2019-03-11T02:47:06.884Z,936.7
2019-03-11T02:48:06.795Z,936.7
2019-03-11T02:49:06.734Z,936.7
2019-03-11T02:50:06.666Z,935.2
2019-03-11T02:51:06.564Z,936.5
2019-03-11T02:52:06.515Z,936.7
2019-03-11T02:53:06.472Z,936.5
2019-03-11T02:54:06.985Z,936.5
2019-03-11T02:55:07.363Z,936.6
2019-03-11T02:56:07.378Z,936.6
2019-03-11T02:57:07.339Z,936.6
2019-03-11T02:58:07.229Z,936.5
2019-03-11T02:59:07.164Z,936.7
2019-03-11T03:00:07.092Z,936.6
2019-03-11T03:01:06.995Z,936.5
2019-03-11T03:02:06.928Z,936.5
2019-03-11T03:03:06.906Z,936.5
2019-03-11T03:04:07.251Z,936.5
2019-03-11T03:05:07.159Z,936.4
2019-03-11T03:06:07.036Z,936.6
2019-03-11T03:07:07.100Z,936.5
2019-03-11T03:08:07.019Z,936.5
2019-03-11T03:09:06.923Z,936.5
2019-03-11T03:10:06.948Z,936.5
2019-03-11T03:11:06.890Z,936.4
2019-03-11T03:12:06.784Z,936.5
2019-03-11T03:13:06.714Z,936.4
2019-03-11T03:14:07.098Z,936.5
2019-03-11T03:15:07.013Z,936.5
2019-03-11T03:16:06.881Z,936.6
2019-03-11T03:17:06.624Z,936.5
2019-03-11T03:18:06.388Z,936.6
2019-03-11T03:19:06.137Z,936.4
2019-03-11T03:20:05.880Z,936.6
2019-03-11T03:21:05.623Z,936.5
2019-03-11T03:22:05.373Z,936.5
2019-03-11T03:23:05.148Z,936.5
2019-03-11T03:24:05.535Z,936.6
2019-03-11T03:25:05.468Z,936.5
2019-03-11T03:26:05.402Z,936.6
2019-03-11T03:27:05.390Z,936.7
2019-03-11T03:28:06.610Z,936.7
2019-03-11T03:29:06.881Z,936.7
2019-03-11T03:30:06.881Z,936.8
2019-03-11T03:31:06.959Z,936.1
2019-03-11T03:32:06.947Z,936.6
2019-03-11T03:33:07.011Z,936.8
2019-03-11T03:34:07.528Z,936.6
2019-03-11T03:35:07.500Z,936.6
2019-03-11T03:36:07.281Z,935.6
2019-03-11T03:37:07.023Z,936.6
2019-03-11T03:38:06.773Z,936.3
2019-03-11T03:39:06.547Z,936.5
2019-03-11T03:40:06.288Z,935.9
2019-03-11T03:41:06.104Z,936.1
2019-03-11T03:42:05.908Z,936.6
2019-03-11T03:43:06.796Z,936.6
2019-03-11T03:44:07.714Z,936.6
2019-03-11T03:45:07.631Z,936.6
2019-03-11T03:46:20.377Z,936.6
2019-03-11T03:47:20.339Z,936.6
2019-03-11T03:48:20.672Z,936.6
2019-03-11T03:49:20.703Z,936.6
2019-03-11T03:50:20.631Z,936.7
2019-03-11T03:51:20.534Z,936.6
2019-03-11T03:52:20.439Z,936.7
2019-03-11T03:53:20.341Z,936.7
2019-03-11T03:54:20.805Z,936.5
2019-03-11T03:55:20.729Z,936.5
2019-03-11T03:56:20.634Z,936.6
2019-03-11T03:57:20.536Z,936.5
2019-03-11T03:58:20.445Z,936.6
2019-03-11T03:59:20.375Z,936.5
2019-03-11T04:00:20.341Z,936.4
2019-03-11T04:01:20.234Z,936.4
2019-03-11T04:02:20.142Z,936.4
2019-03-11T04:03:20.083Z,936.5
2019-03-11T04:04:20.401Z,936.5
2019-03-11T04:05:20.345Z,936.4
2019-03-11T04:06:20.265Z,936.4
2019-03-11T04:07:20.195Z,936.3
2019-03-11T04:08:20.114Z,936.4
2019-03-11T04:09:20.025Z,936.4
2019-03-11T04:10:19.963Z,936.4
2019-03-11T04:11:19.861Z,936.4
2019-03-11T04:12:19.782Z,936.4
2019-03-11T04:13:19.721Z,936.1
2019-03-11T04:14:20.043Z,936.4
2019-03-11T04:15:19.955Z,936.4
2019-03-11T04:16:19.856Z,936.4
2019-03-11T04:17:19.750Z,936.4
2019-03-11T04:18:19.716Z,936.2
2019-03-11T04:19:19.639Z,936.2
2019-03-11T04:20:19.724Z,936.3
2019-03-11T04:21:19.696Z,936.3
2019-03-11T04:22:19.599Z,936.3
2019-03-11T04:23:19.529Z,936.3
2019-03-11T04:24:19.887Z,936.2
2019-03-11T04:25:19.943Z,936.3
2019-03-11T04:26:19.687Z,936
2019-03-11T04:27:19.432Z,936.2
2019-03-11T04:28:19.153Z,936.1
2019-03-11T04:29:18.890Z,936
2019-03-11T04:30:18.621Z,936.1
2019-03-11T04:31:18.338Z,936.1
2019-03-11T04:32:18.099Z,936
2019-03-11T04:33:17.817Z,936.2
2019-03-11T04:34:18.259Z,936.1
2019-03-11T04:35:18.158Z,936.1
2019-03-11T04:36:18.093Z,936.1
2019-03-11T04:37:18.067Z,936.1
2019-03-11T04:38:17.957Z,936.1
2019-03-11T04:39:17.863Z,936.1
2019-03-11T04:40:17.785Z,936
2019-03-11T04:41:17.682Z,936
2019-03-11T04:42:17.592Z,936
2019-03-11T04:43:17.473Z,936.2
2019-03-11T04:44:17.825Z,936
2019-03-11T04:45:17.717Z,936
2019-03-11T04:46:17.601Z,936
2019-03-11T04:47:17.483Z,935.9
2019-03-11T04:48:17.409Z,935.9
2019-03-11T04:49:17.321Z,935.9
2019-03-11T04:50:17.323Z,935.9
2019-03-11T04:51:17.231Z,935.7
2019-03-11T04:52:17.132Z,936
2019-03-11T04:53:17.051Z,936
2019-03-11T04:54:17.358Z,935.9
2019-03-11T04:55:17.254Z,935.9
2019-03-11T04:56:17.144Z,935.9
2019-03-11T04:57:17.015Z,935.9
2019-03-11T04:58:16.908Z,935.9
2019-03-11T04:59:16.784Z,935.8
2019-03-11T05:00:16.696Z,935.9
2019-03-11T05:01:16.581Z,935.9
2019-03-11T05:02:16.483Z,936
2019-03-11T05:03:16.473Z,936
2019-03-11T05:04:16.790Z,936
2019-03-11T05:05:16.692Z,935
2019-03-11T05:06:16.581Z,935.8
2019-03-11T05:07:16.484Z,935.8
2019-03-11T05:08:16.403Z,935.9
2019-03-11T05:09:16.308Z,934.4
2019-03-11T05:10:17.365Z,936
2019-03-11T05:11:17.249Z,936
2019-03-11T05:12:17.123Z,936
2019-03-11T05:13:17.036Z,936
2019-03-11T05:14:17.358Z,935.9
2019-03-11T05:15:17.269Z,936
2019-03-11T05:16:17.228Z,936.1
2019-03-11T05:17:17.194Z,936
2019-03-11T05:18:17.071Z,935.8
2019-03-11T05:19:16.985Z,936
2019-03-11T05:20:16.934Z,936
2019-03-11T05:21:16.850Z,936
2019-03-11T05:22:16.806Z,935.9
2019-03-11T05:23:16.692Z,935.7
2019-03-11T05:24:17.061Z,935.9
2019-03-11T05:25:16.957Z,935.9
2019-03-11T05:26:16.853Z,935.9
2019-03-11T05:27:16.730Z,935.1
2019-03-11T05:28:16.622Z,935.7
2019-03-11T05:29:16.518Z,935.8
2019-03-11T05:30:16.425Z,935.6
2019-03-11T05:31:16.316Z,935.8
2019-03-11T05:32:16.204Z,935.8
2019-03-11T05:33:16.109Z,935.7
2019-03-11T05:34:19.394Z,935.8
2019-03-11T05:35:19.310Z,935.7
2019-03-11T05:36:19.207Z,935.6
2019-03-11T05:37:19.098Z,935.7
2019-03-11T05:38:18.974Z,935.7
2019-03-11T05:39:18.902Z,935.7
2019-03-11T05:40:18.834Z,935.7
2019-03-11T05:41:18.737Z,935.7
2019-03-11T05:42:18.637Z,935.6
2019-03-11T05:43:18.527Z,935.5
2019-03-11T05:44:18.844Z,935.6
2019-03-11T05:45:18.764Z,935.5
2019-03-11T05:46:18.695Z,935.3
2019-03-11T05:47:18.575Z,935.4
2019-03-11T05:48:18.471Z,935.4
2019-03-11T05:49:18.364Z,935.5
2019-03-11T05:50:18.288Z,935.4
2019-03-11T05:51:18.192Z,935.4
2019-03-11T05:52:18.071Z,935.4
2019-03-11T05:53:17.974Z,935.4
2019-03-11T05:54:18.306Z,935.3
2019-03-11T05:55:18.212Z,935.3
2019-03-11T05:56:17.980Z,935.3
2019-03-11T05:57:17.714Z,935.3
2019-03-11T05:58:17.440Z,935
2019-03-11T05:59:17.170Z,935.2
2019-03-11T06:00:16.890Z,935.1
2019-03-11T06:01:16.684Z,935.2
2019-03-11T06:02:16.428Z,935.2
2019-03-11T06:03:16.166Z,935.2
2019-03-11T06:04:16.519Z,935.1
2019-03-11T06:05:16.398Z,935.1
2019-03-11T06:06:16.331Z,935.2
2019-03-11T06:07:16.264Z,935
2019-03-11T06:08:16.144Z,935.3
2019-03-11T06:09:16.028Z,935
2019-03-11T06:10:15.977Z,935
2019-03-11T06:11:15.888Z,934.9
2019-03-11T06:12:15.785Z,935
2019-03-11T06:13:15.691Z,935.1
2019-03-11T06:14:16.005Z,934.9
2019-03-11T06:15:15.949Z,935
2019-03-11T06:16:15.882Z,935
2019-03-11T06:17:15.602Z,935
2019-03-11T06:18:18.102Z,934.1
2019-03-11T06:19:17.838Z,935
2019-03-11T06:20:17.560Z,935
2019-03-11T06:21:17.288Z,934.6
2019-03-11T06:22:17.004Z,934.9
2019-03-11T06:23:16.740Z,934.9
2019-03-11T06:24:17.086Z,934.9
2019-03-11T06:25:17.002Z,934.9
2019-03-11T06:26:16.914Z,934.7
2019-03-11T06:27:16.809Z,934.7
2019-03-11T06:28:16.744Z,934.9
2019-03-11T06:29:16.707Z,934.8
2019-03-11T06:30:16.609Z,934.9
2019-03-11T06:31:16.507Z,934.9
2019-03-11T06:32:16.404Z,934.8
2019-03-11T06:33:16.367Z,934.9
2019-03-11T06:34:16.716Z,934.8
2019-03-11T06:35:16.632Z,934.9
2019-03-11T06:36:16.526Z,934.7
2019-03-11T06:37:16.453Z,934.8
2019-03-11T06:38:16.346Z,935
2019-03-11T06:39:16.272Z,934.8
2019-03-11T06:40:16.172Z,934.9
2019-03-11T06:41:16.064Z,934.9
2019-03-11T06:42:15.964Z,934.9
2019-03-11T06:43:15.849Z,935
2019-03-11T06:44:19.720Z,934.8
2019-03-11T06:45:19.602Z,934.8
2019-03-11T06:46:19.500Z,934.8
2019-03-11T06:47:19.407Z,934.8
2019-03-11T06:48:19.328Z,934.9
2019-03-11T06:49:19.273Z,935
2019-03-11T06:50:19.181Z,935
2019-03-11T06:51:19.092Z,935
2019-03-11T06:52:18.962Z,935.1
2019-03-11T06:53:18.852Z,934.9
2019-03-11T06:54:19.183Z,935
2019-03-11T06:55:19.098Z,935
2019-03-11T06:56:18.994Z,935.1
2019-03-11T06:57:18.905Z,935
2019-03-11T06:58:18.805Z,935.2
2019-03-11T06:59:18.719Z,935
2019-03-11T07:00:18.685Z,934.9
2019-03-11T07:01:18.570Z,935
2019-03-11T07:02:18.540Z,935
2019-03-11T07:03:18.434Z,935
2019-03-11T07:04:18.769Z,934.9
2019-03-11T07:05:21.953Z,935.1
2019-03-11T07:06:21.844Z,935.2
2019-03-11T07:07:21.812Z,935.1
2019-03-11T07:08:21.715Z,934.8
2019-03-11T07:09:22.237Z,934.8
2019-03-11T07:10:22.183Z,935
2019-03-11T07:11:22.084Z,935
2019-03-11T07:12:21.983Z,934.9
2019-03-11T07:13:21.875Z,934.9
2019-03-11T07:14:22.189Z,934.7
2019-03-11T07:15:22.081Z,934.7
2019-03-11T07:16:22.018Z,934.8
2019-03-11T07:17:21.969Z,934.7
2019-03-11T07:18:21.865Z,934.8
2019-03-11T07:19:21.763Z,935
2019-03-11T07:20:21.661Z,935.1
2019-03-11T07:21:21.574Z,935
2019-03-11T07:22:21.468Z,935.3
2019-03-11T07:23:21.361Z,935.4
2019-03-11T07:24:21.711Z,935.2
2019-03-11T07:25:21.603Z,935
2019-03-11T07:26:21.513Z,935
2019-03-11T07:27:21.429Z,935.2
2019-03-11T07:28:21.315Z,935.1
2019-03-11T07:29:21.213Z,935.1
2019-03-11T07:30:21.099Z,935.2
2019-03-11T07:31:21.046Z,935.2
2019-03-11T07:32:20.937Z,935
2019-03-11T07:33:20.918Z,935.3
2019-03-11T07:34:21.401Z,935.4
2019-03-11T07:35:21.287Z,935.3
2019-03-11T07:36:21.176Z,935.1
2019-03-11T07:37:21.826Z,935.1
2019-03-11T07:38:21.815Z,935.2
2019-03-11T07:39:21.709Z,934.9
2019-03-11T07:40:31.269Z,935.2
2019-03-11T07:41:31.189Z,935.1
2019-03-11T07:42:31.124Z,935.1
2019-03-11T07:43:30.998Z,935
2019-03-11T07:44:31.335Z,935
2019-03-11T07:45:31.234Z,935
2019-03-11T07:46:31.189Z,935.1
2019-03-11T07:47:31.124Z,935.1
2019-03-11T07:48:31.023Z,935.1
2019-03-11T07:49:30.919Z,935
2019-03-11T07:50:30.867Z,935
2019-03-11T07:51:30.765Z,935.1
2019-03-11T07:52:30.665Z,935.1
2019-03-11T07:53:30.577Z,935.1
2019-03-11T07:54:36.912Z,935
2019-03-11T07:55:36.843Z,935
2019-03-11T07:56:36.725Z,935.1
2019-03-11T07:57:36.633Z,935.1
2019-03-11T07:58:36.556Z,935.1
2019-03-11T07:59:36.471Z,934.9
2019-03-11T08:00:36.359Z,935
2019-03-11T08:01:36.267Z,935
2019-03-11T08:02:36.167Z,935.1
2019-03-11T08:03:36.065Z,935
2019-03-11T08:04:36.421Z,933.8
2019-03-11T08:05:36.325Z,934.2
2019-03-11T08:06:36.203Z,935.1
2019-03-11T08:07:36.124Z,935
2019-03-11T08:08:36.702Z,935.2
2019-03-11T08:09:39.406Z,935.2
2019-03-11T08:10:39.396Z,934.9
2019-03-11T08:11:39.317Z,935.1
2019-03-11T08:12:39.215Z,935.2
2019-03-11T08:13:39.112Z,935.2
2019-03-11T08:14:39.449Z,935
2019-03-11T08:15:39.338Z,935.1
2019-03-11T08:16:39.250Z,935.1
2019-03-11T08:17:39.163Z,934.9
2019-03-11T08:18:38.910Z,935.1
2019-03-11T08:19:38.657Z,934.9
2019-03-11T08:20:38.391Z,935
2019-03-11T08:21:38.115Z,935
2019-03-11T08:22:37.858Z,935.2
2019-03-11T08:23:37.596Z,934.9
2019-03-11T08:24:37.914Z,935
2019-03-11T08:25:37.842Z,935
2019-03-11T08:26:37.743Z,935
2019-03-11T08:27:37.639Z,935
2019-03-11T08:28:37.537Z,934.9
2019-03-11T08:29:37.438Z,934.9
2019-03-11T08:30:37.366Z,934.9
2019-03-11T08:31:37.258Z,935.1
2019-03-11T08:32:37.151Z,935
2019-03-11T08:33:37.094Z,935.1
2019-03-11T08:34:37.404Z,935.2
2019-03-11T08:35:37.324Z,934.9
2019-03-11T08:36:37.228Z,935.1
2019-03-11T08:37:37.128Z,935.2
2019-03-11T08:38:37.010Z,935
2019-03-11T08:39:36.926Z,935.2
2019-03-11T08:40:36.840Z,935.1
2019-03-11T08:41:36.751Z,935.3
2019-03-11T08:42:36.730Z,935.3
2019-03-11T08:43:36.672Z,935.3
2019-03-11T08:44:37.021Z,935.3
2019-03-11T08:45:36.936Z,935.3
2019-03-11T08:46:36.916Z,935.4
2019-03-11T08:47:36.828Z,935.4
2019-03-11T08:48:36.728Z,935.3
2019-03-11T08:49:36.642Z,935.5
2019-03-11T08:50:36.628Z,935.5
2019-03-11T08:51:36.518Z,935.4
2019-03-11T08:52:36.411Z,935.4
2019-03-11T08:53:36.297Z,935.6
2019-03-11T08:54:36.634Z,936
2019-03-11T08:55:36.521Z,936
2019-03-11T08:56:36.418Z,936.7
2019-03-11T08:57:36.312Z,936.8
2019-03-11T08:58:36.210Z,936.6
2019-03-11T08:59:36.113Z,936.7
2019-03-11T09:00:36.166Z,936.7
2019-03-11T09:01:36.054Z,936.8
2019-03-11T09:02:35.960Z,936.7
2019-03-11T09:03:35.882Z,936.7
2019-03-11T09:04:36.208Z,937
2019-03-11T09:05:36.122Z,936.9
2019-03-11T09:06:35.853Z,937
2019-03-11T09:07:35.600Z,937
2019-03-11T09:08:35.340Z,937
2019-03-11T09:09:35.079Z,937.1
2019-03-11T09:10:34.830Z,937.1
2019-03-11T09:11:34.576Z,937
2019-03-11T09:12:34.326Z,936.3
2019-03-11T09:13:34.075Z,937
2019-03-11T09:14:34.398Z,937.1
2019-03-11T09:15:34.288Z,937
2019-03-11T09:16:34.197Z,937
2019-03-11T09:17:34.976Z,936.4
2019-03-11T09:18:34.895Z,937.1
2019-03-11T09:19:34.793Z,937.2
2019-03-11T09:20:34.696Z,937.2
2019-03-11T09:21:34.592Z,937
2019-03-11T09:22:34.494Z,937.1
2019-03-11T09:23:34.426Z,937.3
2019-03-11T09:24:34.797Z,937.2
2019-03-11T09:25:34.706Z,937.4
2019-03-11T09:26:34.617Z,937.3
2019-03-11T09:27:34.530Z,937.5
2019-03-11T09:28:35.380Z,937.3
2019-03-11T09:29:35.432Z,937.4
2019-03-11T09:30:35.324Z,937.3
2019-03-11T09:31:35.228Z,937.5
2019-03-11T09:32:35.135Z,937.4
2019-03-11T09:33:35.063Z,937.1
2019-03-11T09:34:35.378Z,937.2
2019-03-11T09:35:35.271Z,937.3
2019-03-11T09:36:35.158Z,937.3
2019-03-11T09:37:35.048Z,937.3
2019-03-11T09:38:34.922Z,937.3
2019-03-11T09:39:34.852Z,937.2
2019-03-11T09:40:34.727Z,937.3
2019-03-11T09:41:34.612Z,937.2
2019-03-11T09:42:34.513Z,937
2019-03-11T09:43:34.418Z,936.9
2019-03-11T09:44:34.754Z,937.3
2019-03-11T09:45:34.514Z,937.1
2019-03-11T09:46:34.251Z,937
2019-03-11T09:47:33.997Z,937.1
2019-03-11T09:48:33.746Z,937.1
2019-03-11T09:49:33.469Z,937
2019-03-11T09:50:33.267Z,937.1
2019-03-11T09:51:32.996Z,937
2019-03-11T09:52:32.726Z,937
2019-03-11T09:53:32.473Z,937.1
2019-03-11T09:54:32.609Z,937
2019-03-11T09:55:32.376Z,936.9
2019-03-11T09:56:44.056Z,937.1
2019-03-11T09:57:43.775Z,937.1
2019-03-11T09:58:43.490Z,937
2019-03-11T09:59:43.221Z,937.1
2019-03-11T10:00:42.962Z,937.2
2019-03-11T10:01:42.694Z,937.2
2019-03-11T10:02:54.022Z,937.2
2019-03-11T10:03:53.777Z,937.3
2019-03-11T10:04:54.172Z,937.1
2019-03-11T10:05:54.140Z,937.2
2019-03-11T10:06:54.024Z,937.1
2019-03-11T10:07:54.774Z,937.2
2019-03-11T10:08:54.702Z,937.2
2019-03-11T10:09:54.635Z,937.2
2019-03-11T10:10:54.549Z,937.2
2019-03-11T10:11:54.468Z,937.1
2019-03-11T10:12:54.353Z,937
2019-03-11T10:13:54.234Z,937.2
2019-03-11T10:14:54.605Z,937.2
2019-03-11T10:15:54.526Z,937.3
2019-03-11T10:16:54.453Z,937.3
2019-03-11T10:17:54.395Z,937.1
2019-03-11T10:18:54.351Z,937.3
2019-03-11T10:19:54.257Z,937.3
2019-03-11T10:20:54.157Z,937.3
2019-03-11T10:21:54.057Z,937.2
2019-03-11T10:22:54.005Z,937.3
2019-03-11T10:23:53.955Z,937.2
2019-03-11T10:24:54.308Z,937.3
2019-03-11T10:25:54.246Z,937.3
2019-03-11T10:26:54.131Z,937.4
2019-03-11T10:27:54.019Z,937.4
2019-03-11T10:28:53.937Z,937.4
2019-03-11T10:29:53.835Z,937.3
2019-03-11T10:30:53.743Z,937.4
2019-03-11T10:31:53.645Z,937.4
2019-03-11T10:32:53.557Z,937.4
2019-03-11T10:33:53.449Z,937.3
2019-03-11T10:34:53.773Z,937.3
2019-03-11T10:35:53.641Z,937.4
2019-03-11T10:36:53.635Z,937.5
2019-03-11T10:37:53.527Z,937.3
2019-03-11T10:38:53.431Z,937.4
2019-03-11T10:39:53.329Z,936.3
2019-03-11T10:40:53.209Z,937.5
2019-03-11T10:41:53.099Z,937.5
2019-03-11T10:42:53.027Z,937.3
2019-03-11T10:43:52.935Z,937.3
2019-03-11T10:44:53.259Z,937.3
2019-03-11T10:45:53.147Z,937.3
2019-03-11T10:46:52.887Z,937.4
2019-03-11T10:47:52.695Z,937.2
2019-03-11T10:48:52.427Z,937.5
2019-03-11T10:49:52.146Z,937.6
2019-03-11T10:50:52.172Z,937.6
2019-03-11T10:51:52.004Z,937.5
2019-03-11T10:52:51.741Z,937.5
2019-03-11T10:53:51.506Z,937.7
2019-03-11T10:54:51.836Z,937.5
2019-03-11T10:55:51.728Z,937.6
2019-03-11T10:56:51.613Z,937.7
2019-03-11T10:57:51.499Z,937.4
2019-03-11T10:58:51.499Z,937.4
2019-03-11T10:59:51.433Z,937.7
2019-03-11T11:00:51.345Z,937.6
2019-03-11T11:01:51.246Z,937.5
2019-03-11T11:02:51.171Z,937.6
2019-03-11T11:03:51.107Z,937.6
2019-03-11T11:04:51.412Z,937.7
2019-03-11T11:05:51.295Z,937.6
2019-03-11T11:06:51.219Z,937.5
2019-03-11T11:07:51.124Z,937.6
2019-03-11T11:08:51.036Z,937.6
2019-03-11T11:09:50.934Z,937.6
2019-03-11T11:10:50.853Z,937.4
2019-03-11T11:11:50.740Z,937.6
2019-03-11T11:12:50.651Z,937.7
2019-03-11T11:13:50.579Z,937.5
2019-03-11T11:14:50.925Z,937.5
2019-03-11T11:15:50.807Z,937.5
2019-03-11T11:16:50.717Z,937.6
2019-03-11T11:17:50.612Z,936.7
2019-03-11T11:18:50.515Z,937.7
2019-03-11T11:19:50.433Z,937.6
2019-03-11T11:20:50.334Z,937.4
2019-03-11T11:21:50.249Z,937.7
2019-03-11T11:22:50.174Z,937.8
2019-03-11T11:23:50.105Z,937.7
2019-03-11T11:24:50.431Z,937.7
2019-03-11T11:25:50.354Z,937.6
2019-03-11T11:26:50.268Z,936.2
2019-03-11T11:27:50.163Z,937.5
2019-03-11T11:28:50.074Z,937.3
2019-03-11T11:29:50.009Z,937.7
2019-03-11T11:30:49.918Z,937.8
2019-03-11T11:31:49.826Z,937.6
2019-03-11T11:32:49.701Z,937.7
2019-03-11T11:33:49.609Z,937.6
2019-03-11T11:34:49.954Z,937.7
2019-03-11T11:35:49.855Z,937.5
2019-03-11T11:36:49.787Z,937.6
2019-03-11T11:37:49.701Z,937.4
2019-03-11T11:38:49.591Z,937.5
2019-03-11T11:39:49.471Z,937.5
2019-03-11T11:40:49.384Z,937.5
2019-03-11T11:41:49.273Z,937.4
2019-03-11T11:42:49.153Z,937.4
2019-03-11T11:43:49.063Z,937.5
2019-03-11T11:44:49.380Z,937.4
2019-03-11T11:45:49.303Z,937.4
2019-03-11T11:46:49.187Z,937.4
2019-03-11T11:47:49.057Z,937.2
2019-03-11T11:48:48.943Z,937.3
2019-03-11T11:49:48.894Z,937.1
2019-03-11T11:50:48.799Z,937.3
2019-03-11T11:51:48.686Z,937.2
2019-03-11T11:52:48.627Z,937.1
2019-03-11T11:53:48.511Z,937.2
2019-03-11T11:54:48.831Z,937.3
2019-03-11T11:55:58.990Z,937.1
2019-03-11T11:56:58.892Z,937
2019-03-11T11:57:58.789Z,937.1
2019-03-11T11:58:58.697Z,937
2019-03-11T11:59:58.616Z,937.1
2019-03-11T12:00:58.554Z,937
2019-03-11T12:02:05.130Z,936.8
2019-03-11T12:03:05.075Z,937
2019-03-11T12:04:04.980Z,937
2019-03-11T12:05:05.316Z,937
2019-03-11T12:06:05.228Z,937
2019-03-11T12:07:05.127Z,937
2019-03-11T12:08:05.046Z,937
2019-03-11T12:09:04.922Z,937
2019-03-11T12:10:04.824Z,937
2019-03-11T12:11:04.715Z,937
2019-03-11T12:12:10.278Z,937
2019-03-11T12:13:10.192Z,936.9
2019-03-11T12:14:10.091Z,936.9
2019-03-11T12:15:10.425Z,937
2019-03-11T12:16:10.324Z,937.1
2019-03-11T12:17:10.236Z,937
2019-03-11T12:18:10.139Z,937
2019-03-11T12:19:10.042Z,937
2019-03-11T12:20:09.982Z,937
2019-03-11T12:21:09.892Z,937
2019-03-11T12:22:09.818Z,937
2019-03-11T12:23:09.802Z,937
2019-03-11T12:24:09.702Z,937
2019-03-11T12:25:10.025Z,937
2019-03-11T12:26:09.992Z,936.9
2019-03-11T12:27:09.910Z,936.8
2019-03-11T12:28:09.799Z,937
2019-03-11T12:29:09.682Z,937
2019-03-11T12:30:09.592Z,936.9
2019-03-11T12:31:09.506Z,937
2019-03-11T12:32:09.416Z,936.9
2019-03-11T12:33:09.308Z,937
2019-03-11T12:34:09.270Z,936.9
2019-03-11T12:35:09.690Z,937
2019-03-11T12:36:09.607Z,936.9
2019-03-11T12:37:09.504Z,937
2019-03-11T12:38:09.252Z,937
2019-03-11T12:39:08.989Z,936.9
2019-03-11T12:40:08.718Z,937
2019-03-11T12:41:08.464Z,936.8
2019-03-11T12:42:08.205Z,937
2019-03-11T12:43:07.937Z,937
2019-03-11T12:44:07.668Z,936.8
2019-03-11T12:45:08.005Z,937
2019-03-11T12:46:07.898Z,936.8
2019-03-11T12:47:07.840Z,936.9
2019-03-11T12:48:07.973Z,936.8
2019-03-11T12:49:07.852Z,936.9
2019-03-11T12:50:07.731Z,936.9
2019-03-11T12:51:07.616Z,936.8
2019-03-11T12:52:07.510Z,936.7
2019-03-11T12:53:07.437Z,936.3
2019-03-11T12:54:07.324Z,936.6
2019-03-11T12:55:07.677Z,936.8
2019-03-11T12:56:07.582Z,936.9
2019-03-11T12:57:07.486Z,936.9
2019-03-11T12:58:07.412Z,936.8
2019-03-11T12:59:07.327Z,936.8
2019-03-11T13:00:07.240Z,936.8
2019-03-11T13:01:07.162Z,936.7
2019-03-11T13:02:07.112Z,936.9